Airfield :
LOGIN :

Register | Disclaimer

   EN    FR    IT 

 










Legend :    VFR   Marginal VFR   IFR   Intensive IFR   Very Intensive IFR
Visi :
Ceiling :
>= 8 km
>= 3000ft
5 to 8 km
1000 to 3000 ft
1500m to 5 km
500 to 1000 ft
800 to 1500m
200 to 500 ft
< 800m
< 200 ft
Symbols :   Thunderstorms  Fog  Heavy snow  Heavy precipitations  Wind > 20 kt
SIGMETs :     Misc.  Thunderstorms  Icing  Turbulence  Mountain Waves  Volcanic Ashes






- Airport Elevation : 464 ft
- IATA code : EVX


LFOE - Evreux

CURRENT METAR :
  • 050130Z AUTO 00000KT CAVOK 13/08 Q1016

EXPIRED METARs :
  • 050100Z AUTO 00000KT CAVOK 14/09 Q1017
  • 050030Z AUTO 00000KT CAVOK 14/09 Q1017
  • 050000Z AUTO 08001KT CAVOK 15/10 Q1017
  • 042330Z AUTO 07003KT CAVOK 16/10 Q1017 NOSIG
  • 042300Z AUTO 04002KT CAVOK 17/10 Q1017 NOSIG

TAF TAF LFOE
Valid from the 04 at 21:00 until the 05 at 21:00 UTC


042000Z 0421/0521 31004KT CAVOK
BECMG 0508/0510 19012KT
BECMG 0517/0519 VRB03KT



MET'MAP, your aeronautical weather chart ! - Copyright ORBIFLY December 2007 - Disclaimer

ORBIFLY MET'MAP TEAM :

Programming & Development : Alexandra Zaïnal
Concept & original design : Baudouin d'Aumeries
Assistance for programming : Marc-Olivier Méhu
Technical & hardware support : Manuel Goepfert

Contact : metmap@orbifly.com




SOURCES & CREDITS :

   NOAA